createdAt,value
2023-03-11T00:01:07.692Z,99.77
2023-03-11T00:03:34.527Z,99.76
2023-03-11T00:06:02.583Z,99.96
2023-03-11T00:08:30.803Z,100.00
2023-03-11T00:11:00.685Z,99.83
2023-03-11T00:13:30.091Z,99.50
2023-03-11T00:15:58.035Z,99.82
2023-03-11T00:18:30.091Z,100.00
2023-03-11T00:20:59.253Z,100.00
2023-03-11T00:23:27.517Z,100.00
2023-03-11T00:25:55.021Z,100.00
2023-03-11T00:28:26.746Z,100.00
2023-03-11T00:30:54.007Z,100.00
2023-03-11T00:33:20.969Z,100.00
2023-03-11T00:35:48.044Z,100.00
2023-03-11T00:38:17.099Z,100.00
2023-03-11T00:40:47.255Z,100.00
2023-03-11T00:43:16.222Z,100.00
2023-03-11T00:45:43.203Z,100.00
2023-03-11T00:48:12.593Z,100.00
2023-03-11T00:50:40.702Z,99.56
2023-03-11T00:53:07.784Z,99.15
2023-03-11T00:55:35.820Z,98.91
2023-03-11T00:58:07.540Z,98.96
2023-03-11T01:00:46.509Z,98.84
2023-03-11T01:03:13.423Z,98.77
2023-03-11T01:05:40.537Z,98.77
2023-03-11T01:08:07.578Z,98.53
2023-03-11T01:10:35.537Z,98.38
2023-03-11T01:13:03.388Z,97.92
2023-03-11T01:15:35.098Z,97.93
2023-03-11T01:18:03.300Z,97.67
2023-03-11T01:20:32.805Z,96.75
2023-03-11T01:22:59.621Z,95.67
2023-03-11T01:25:28.719Z,95.19
2023-03-11T01:27:59.292Z,95.26
2023-03-11T01:30:28.480Z,94.82
2023-03-11T01:32:57.877Z,94.77
2023-03-11T01:35:31.726Z,95.13
2023-03-11T01:37:59.488Z,95.47
2023-03-11T01:40:35.857Z,95.38
2023-03-11T01:43:41.328Z,95.15
2023-03-11T01:46:37.419Z,95.88
2023-03-11T01:49:05.920Z,96.05
2023-03-11T01:51:41.557Z,96.05
2023-03-11T01:54:18.359Z,95.90
2023-03-11T01:56:46.839Z,96.17
2023-03-11T01:59:19.697Z,96.51
2023-03-11T02:02:02.343Z,96.63
2023-03-11T02:04:29.479Z,96.01
2023-03-11T02:06:57.342Z,95.22
2023-03-11T02:09:26.905Z,95.38
2023-03-11T02:11:56.180Z,95.00
2023-03-11T02:14:29.257Z,94.82
2023-03-11T02:16:58.767Z,94.60
2023-03-11T02:19:28.754Z,94.77
2023-03-11T02:21:57.409Z,95.27
2023-03-11T02:24:55.390Z,95.87
2023-03-11T02:27:25.683Z,95.37
2023-03-11T02:29:54.068Z,95.00
2023-03-11T02:32:22.560Z,94.97
2023-03-11T02:34:49.775Z,94.52
2023-03-11T02:37:18.606Z,93.99
2023-03-11T02:39:54.819Z,93.93
2023-03-11T02:42:29.188Z,94.79
2023-03-11T02:45:12.546Z,95.12
2023-03-11T02:47:41.192Z,95.54
2023-03-11T02:50:15.299Z,95.22
2023-03-11T02:52:42.779Z,96.15
2023-03-11T02:55:16.066Z,96.72
2023-03-11T02:57:43.103Z,96.88
2023-03-11T03:00:14.714Z,97.21
2023-03-11T03:02:46.862Z,97.02
2023-03-11T03:05:14.265Z,97.18
2023-03-11T03:07:42.024Z,97.00
2023-03-11T03:10:10.235Z,96.77
2023-03-11T03:12:37.210Z,95.83
2023-03-11T03:15:04.620Z,95.36
2023-03-11T03:17:31.792Z,95.03
2023-03-11T03:19:59.093Z,95.20
2023-03-11T03:22:27.510Z,95.58
2023-03-11T03:24:54.954Z,95.07
2023-03-11T03:27:22.207Z,94.86
2023-03-11T03:29:49.294Z,95.17
2023-03-11T03:32:16.687Z,94.71
2023-03-11T03:34:43.815Z,95.42
2023-03-11T03:37:10.831Z,94.91
2023-03-11T03:39:37.947Z,94.58
2023-03-11T03:42:06.048Z,95.04
2023-03-11T03:44:35.939Z,95.57
2023-03-11T03:47:03.054Z,95.44
2023-03-11T03:49:30.216Z,96.19
2023-03-11T03:51:57.659Z,96.53
2023-03-11T03:54:31.571Z,95.83
2023-03-11T03:56:59.307Z,95.67
2023-03-11T03:59:26.337Z,95.57
2023-03-11T04:01:58.123Z,95.95
2023-03-11T04:04:26.885Z,95.76
2023-03-11T04:06:54.554Z,95.11
2023-03-11T04:09:21.750Z,94.56
2023-03-11T04:11:48.762Z,94.76
2023-03-11T04:14:16.920Z,94.75
2023-03-11T04:16:52.112Z,95.07
2023-03-11T04:19:19.033Z,95.38
2023-03-11T04:21:46.609Z,95.89
2023-03-11T04:24:13.539Z,96.01
2023-03-11T04:26:40.487Z,94.49
2023-03-11T04:29:11.750Z,94.32
2023-03-11T04:31:42.834Z,94.60
2023-03-11T04:34:09.893Z,94.76
2023-03-11T04:36:38.996Z,94.98
2023-03-11T04:39:08.386Z,95.34
2023-03-11T04:41:40.931Z,95.54
2023-03-11T04:44:10.278Z,95.79
2023-03-11T04:46:37.633Z,96.13
2023-03-11T04:49:07.370Z,96.24
2023-03-11T04:51:34.461Z,96.35
2023-03-11T04:54:01.470Z,95.82
2023-03-11T04:56:30.178Z,96.14
2023-03-11T04:58:57.754Z,96.13
2023-03-11T05:01:25.750Z,96.69
2023-03-11T05:03:53.049Z,97.08
2023-03-11T05:06:20.196Z,97.41
2023-03-11T05:08:47.851Z,97.65
2023-03-11T05:11:14.890Z,97.75
2023-03-11T05:13:44.158Z,98.06
2023-03-11T05:16:11.875Z,98.04
2023-03-11T05:18:39.059Z,98.13
2023-03-11T05:21:06.818Z,97.99
2023-03-11T05:23:36.398Z,97.99
2023-03-11T05:26:03.562Z,97.96
2023-03-11T05:28:31.931Z,98.19
2023-03-11T05:30:58.848Z,98.49
2023-03-11T05:33:28.517Z,98.43
2023-03-11T05:35:55.613Z,98.69
2023-03-11T05:38:22.593Z,98.72
2023-03-11T05:40:49.764Z,98.45
2023-03-11T05:43:16.697Z,98.17
2023-03-11T05:45:50.628Z,98.51
2023-03-11T05:48:17.565Z,98.64
2023-03-11T05:50:44.613Z,98.92
2023-03-11T05:53:11.773Z,98.95
2023-03-11T05:55:42.468Z,99.05
2023-03-11T05:58:09.791Z,99.23
2023-03-11T06:00:37.132Z,99.01
2023-03-11T06:03:05.283Z,99.09
2023-03-11T06:05:32.287Z,99.03
2023-03-11T06:07:59.700Z,99.08
2023-03-11T06:10:26.561Z,99.12
2023-03-11T06:12:53.687Z,99.17
2023-03-11T06:15:24.718Z,98.99
2023-03-11T06:17:53.308Z,99.03
2023-03-11T06:20:20.803Z,99.03
2023-03-11T06:22:51.914Z,99.00
2023-03-11T06:25:22.098Z,98.88
2023-03-11T06:27:52.378Z,98.64
2023-03-11T06:30:21.266Z,98.16
2023-03-11T06:33:01.329Z,98.17
2023-03-11T06:35:28.441Z,98.45
2023-03-11T06:37:56.150Z,98.53
2023-03-11T06:40:23.428Z,98.60
2023-03-11T06:42:50.610Z,98.80
2023-03-11T06:45:20.707Z,98.84
2023-03-11T06:47:48.690Z,98.98
2023-03-11T06:50:16.475Z,98.71
2023-03-11T06:52:43.761Z,98.69
2023-03-11T06:55:13.042Z,98.48
2023-03-11T06:57:42.637Z,98.35
2023-03-11T07:00:13.658Z,98.33
2023-03-11T07:02:47.188Z,98.68
2023-03-11T07:05:16.145Z,98.84
2023-03-11T07:07:43.482Z,99.20
2023-03-11T07:10:11.926Z,98.58
2023-03-11T07:12:38.931Z,98.13
2023-03-11T07:15:06.937Z,97.71
2023-03-11T07:17:35.871Z,96.57
2023-03-11T07:20:04.232Z,96.67
2023-03-11T07:22:31.124Z,96.41
2023-03-11T07:24:58.063Z,95.86
2023-03-11T07:27:25.237Z,95.80
2023-03-11T07:29:52.183Z,94.18
2023-03-11T07:32:19.222Z,94.66
2023-03-11T07:34:46.230Z,94.51
2023-03-11T07:37:13.134Z,94.47
2023-03-11T07:39:40.177Z,93.75
2023-03-11T07:42:10.216Z,93.85
2023-03-11T07:44:37.085Z,91.96
2023-03-11T07:47:06.303Z,91.71
2023-03-11T07:49:34.199Z,91.91
2023-03-11T07:52:01.166Z,92.22
2023-03-11T07:54:28.327Z,92.25
2023-03-11T07:56:55.307Z,91.37
2023-03-11T07:59:22.353Z,91.47
2023-03-11T08:01:50.590Z,91.33
2023-03-11T08:04:17.711Z,91.17
2023-03-11T08:06:47.970Z,90.45
2023-03-11T08:09:15.359Z,89.96
2023-03-11T08:11:42.788Z,88.84
2023-03-11T08:14:10.364Z,88.14
2023-03-11T08:16:41.134Z,88.41
2023-03-11T08:19:12.567Z,88.14
2023-03-11T08:21:40.004Z,88.13
2023-03-11T08:24:07.448Z,88.36
2023-03-11T08:26:34.437Z,88.36
2023-03-11T08:29:01.460Z,88.23
2023-03-11T08:31:31.925Z,86.10
2023-03-11T08:34:06.900Z,86.57
2023-03-11T08:36:34.323Z,86.77
2023-03-11T08:39:02.084Z,87.03
2023-03-11T08:41:29.286Z,86.97
2023-03-11T08:43:56.800Z,87.32
2023-03-11T08:46:34.756Z,86.43
2023-03-11T08:49:03.431Z,85.60
2023-03-11T08:51:34.032Z,84.16
2023-03-11T08:54:02.290Z,83.28
2023-03-11T08:56:30.245Z,82.61
2023-03-11T08:58:57.479Z,82.37
2023-03-11T09:01:25.014Z,82.61
2023-03-11T09:03:52.572Z,81.31
2023-03-11T09:06:19.932Z,81.48
2023-03-11T09:08:48.977Z,81.79
2023-03-11T09:11:18.287Z,81.86
2023-03-11T09:13:45.725Z,80.96
2023-03-11T09:16:17.008Z,78.83
2023-03-11T09:18:46.026Z,78.12
2023-03-11T09:21:13.490Z,76.91
2023-03-11T09:23:44.151Z,71.92
2023-03-11T09:26:12.572Z,76.21
2023-03-11T09:28:41.514Z,76.52
2023-03-11T09:31:08.775Z,71.96
2023-03-11T09:33:42.282Z,72.76
2023-03-11T09:36:15.471Z,72.54
2023-03-11T09:38:43.626Z,69.15
2023-03-11T09:41:51.521Z,66.79
2023-03-11T09:44:37.110Z,66.50
2023-03-11T09:47:18.378Z,67.79
2023-03-11T09:50:15.041Z,69.52
2023-03-11T09:53:08.735Z,65.29
2023-03-11T09:55:50.386Z,63.23
2023-03-11T09:58:48.712Z,63.93
2023-03-11T10:01:29.060Z,62.52
2023-03-11T10:04:04.901Z,67.04
2023-03-11T10:06:31.921Z,65.49
2023-03-11T10:09:32.850Z,65.42
2023-03-11T10:12:27.429Z,66.46
2023-03-11T10:15:48.361Z,60.86
2023-03-11T10:18:48.737Z,64.68
2023-03-11T10:21:46.414Z,64.57
2023-03-11T10:24:31.566Z,60.72
2023-03-11T10:27:09.483Z,62.03
2023-03-11T10:30:13.662Z,61.80
2023-03-11T10:32:59.985Z,64.52
2023-03-11T10:35:42.527Z,65.50
2023-03-11T10:38:26.323Z,59.88
2023-03-11T10:41:03.229Z,60.18
2023-03-11T10:43:52.854Z,62.39
2023-03-11T10:46:26.644Z,63.60
2023-03-11T10:48:54.226Z,59.25
2023-03-11T10:51:34.288Z,58.83
2023-03-11T10:54:04.098Z,59.72
2023-03-11T10:56:34.187Z,56.35
2023-03-11T10:59:06.685Z,55.45
2023-03-11T11:01:34.216Z,57.54
2023-03-11T11:04:04.982Z,56.05
2023-03-11T11:06:37.285Z,57.36
2023-03-11T11:09:26.811Z,58.90
2023-03-11T11:12:15.066Z,59.93
2023-03-11T11:14:50.193Z,54.38
2023-03-11T11:17:30.104Z,55.88
2023-03-11T11:19:59.129Z,54.68
2023-03-11T11:22:26.995Z,53.24
2023-03-11T11:24:56.393Z,54.30
2023-03-11T11:27:29.338Z,56.15
2023-03-11T11:30:12.354Z,55.15
2023-03-11T11:32:39.670Z,56.66
2023-03-11T11:35:12.833Z,56.95
2023-03-11T11:37:52.240Z,57.01
2023-03-11T11:40:27.469Z,56.84
2023-03-11T11:43:06.368Z,56.22
2023-03-11T11:45:45.579Z,56.09
2023-03-11T11:48:33.571Z,56.02
2023-03-11T11:51:06.246Z,57.57
2023-03-11T11:54:09.128Z,59.79
2023-03-11T11:56:36.280Z,59.52
2023-03-11T11:59:16.342Z,60.69
2023-03-11T12:01:54.570Z,58.19
2023-03-11T12:05:02.306Z,57.65
2023-03-11T12:08:23.536Z,55.71
2023-03-11T12:11:04.055Z,54.86
2023-03-11T12:13:49.833Z,53.81
2023-03-11T12:16:19.921Z,54.40
2023-03-11T12:19:01.118Z,53.19
2023-03-11T12:22:05.211Z,55.08
2023-03-11T12:25:03.250Z,55.00
2023-03-11T12:27:44.869Z,55.91
2023-03-11T12:30:23.213Z,56.58
2023-03-11T12:33:04.294Z,52.95
2023-03-11T12:35:35.688Z,53.58
2023-03-11T12:38:17.409Z,53.89
2023-03-11T12:41:21.175Z,47.98
2023-03-11T12:43:48.195Z,50.84
2023-03-11T12:46:17.921Z,49.64
2023-03-11T12:48:49.827Z,50.62
2023-03-11T12:52:05.614Z,52.90
2023-03-11T12:55:01.157Z,55.35
2023-03-11T12:57:58.605Z,54.65
2023-03-11T13:00:55.870Z,55.88
2023-03-11T13:03:41.531Z,50.68
2023-03-11T13:07:13.132Z,53.56
2023-03-11T13:09:40.637Z,54.97
2023-03-11T13:12:46.190Z,46.48
2023-03-11T13:15:22.140Z,50.50
2023-03-11T13:18:05.231Z,50.81
2023-03-11T13:20:41.531Z,49.60
2023-03-11T13:23:12.996Z,50.27
2023-03-11T13:26:04.534Z,51.42
2023-03-11T13:29:22.730Z,51.36
2023-03-11T13:32:44.009Z,51.17
2023-03-11T13:35:35.854Z,53.02
2023-03-11T13:38:16.632Z,48.29
2023-03-11T13:40:47.479Z,52.36
2023-03-11T13:43:23.523Z,54.56
2023-03-11T13:46:08.319Z,55.10
2023-03-11T13:48:44.922Z,49.01
2023-03-11T13:51:24.962Z,48.53
2023-03-11T13:54:17.841Z,48.25
2023-03-11T13:56:53.938Z,47.67
2023-03-11T13:59:52.688Z,46.74
2023-03-11T14:02:24.953Z,46.95
2023-03-11T14:05:17.560Z,47.11
2023-03-11T14:07:44.723Z,49.36
2023-03-11T14:10:11.660Z,50.00
2023-03-11T14:12:40.251Z,51.56
2023-03-11T14:15:12.934Z,51.81
2023-03-11T14:17:40.154Z,52.23
2023-03-11T14:20:18.404Z,52.17
2023-03-11T14:22:49.808Z,45.74
2023-03-11T14:25:25.403Z,47.20
2023-03-11T14:28:02.974Z,47.38
2023-03-11T14:30:33.327Z,44.88
2023-03-11T14:33:16.102Z,47.02
2023-03-11T14:36:00.063Z,48.50
2023-03-11T14:38:31.829Z,46.32
2023-03-11T14:41:02.779Z,48.73
2023-03-11T14:43:41.154Z,47.61
2023-03-11T14:46:12.494Z,49.59
2023-03-11T14:48:44.110Z,50.74
2023-03-11T14:51:20.151Z,46.60
2023-03-11T14:54:06.365Z,48.81
2023-03-11T14:56:41.751Z,45.38
2023-03-11T14:59:27.133Z,43.55
2023-03-11T15:02:00.286Z,45.81
2023-03-11T15:04:44.183Z,48.33
2023-03-11T15:07:11.363Z,46.03
2023-03-11T15:09:43.833Z,43.90
2023-03-11T15:12:37.251Z,46.44
2023-03-11T15:15:23.389Z,46.26
2023-03-11T15:17:59.121Z,44.30
2023-03-11T15:20:37.605Z,43.78
2023-03-11T15:23:07.705Z,43.71
2023-03-11T15:25:38.599Z,44.37
2023-03-11T15:28:27.478Z,42.80
2023-03-11T15:31:20.402Z,42.83
2023-03-11T15:33:48.290Z,44.14
2023-03-11T15:36:30.991Z,44.02
2023-03-11T15:39:43.819Z,45.34
2023-03-11T15:42:18.165Z,44.41
2023-03-11T15:45:15.395Z,44.19
2023-03-11T15:47:43.688Z,44.20
2023-03-11T15:50:24.979Z,44.54
2023-03-11T15:52:56.298Z,44.36
2023-03-11T15:55:26.827Z,45.89
2023-03-11T15:58:05.292Z,47.03
2023-03-11T16:00:32.838Z,47.45
2023-03-11T16:03:00.533Z,45.75
2023-03-11T16:05:28.211Z,46.31
2023-03-11T16:07:55.270Z,45.64
2023-03-11T16:10:25.766Z,45.38
2023-03-11T16:12:53.559Z,45.96
2023-03-11T16:15:28.468Z,46.38
2023-03-11T16:18:00.997Z,47.21
2023-03-11T16:20:38.945Z,47.31
2023-03-11T16:23:18.966Z,46.95
2023-03-11T16:25:47.885Z,48.58
2023-03-11T16:28:17.590Z,46.49
2023-03-11T16:30:44.752Z,47.82
2023-03-11T16:33:11.882Z,45.69
2023-03-11T16:35:38.937Z,47.71
2023-03-11T16:38:08.241Z,46.68
2023-03-11T16:40:36.188Z,44.95
2023-03-11T16:43:08.361Z,45.62
2023-03-11T16:45:35.788Z,47.21
2023-03-11T16:48:10.057Z,48.73
2023-03-11T16:50:37.764Z,49.64
2023-03-11T16:53:06.158Z,50.66
2023-03-11T16:55:33.198Z,50.63
2023-03-11T16:58:00.251Z,51.27
2023-03-11T17:00:27.328Z,51.65
2023-03-11T17:02:54.596Z,52.08
2023-03-11T17:05:22.001Z,52.34
2023-03-11T17:07:54.381Z,53.09
2023-03-11T17:10:23.825Z,53.63
2023-03-11T17:12:50.872Z,53.41
2023-03-11T17:15:18.033Z,54.05
2023-03-11T17:17:44.945Z,54.41
2023-03-11T17:20:12.667Z,55.19
2023-03-11T17:22:39.750Z,55.74
2023-03-11T17:25:07.777Z,56.24
2023-03-11T17:27:35.054Z,56.43
2023-03-11T17:30:05.681Z,56.63
2023-03-11T17:32:33.514Z,57.02
2023-03-11T17:35:00.627Z,57.29
2023-03-11T17:37:27.759Z,58.02
2023-03-11T17:39:54.901Z,58.59
2023-03-11T17:42:22.219Z,58.92
2023-03-11T17:44:52.082Z,59.28
2023-03-11T17:47:20.075Z,59.86
2023-03-11T17:49:49.576Z,60.15
2023-03-11T17:52:16.589Z,60.71
2023-03-11T17:54:44.619Z,61.55
2023-03-11T17:57:11.909Z,61.91
2023-03-11T17:59:38.998Z,62.65
2023-03-11T18:02:07.803Z,63.10
2023-03-11T18:04:34.850Z,63.54
2023-03-11T18:07:01.913Z,63.88
2023-03-11T18:09:28.894Z,64.23
2023-03-11T18:11:56.086Z,64.70
2023-03-11T18:14:23.127Z,65.21
2023-03-11T18:16:50.201Z,65.47
2023-03-11T18:19:17.150Z,65.98
2023-03-11T18:21:44.556Z,66.42
2023-03-11T18:24:11.768Z,66.66
2023-03-11T18:26:40.251Z,66.99
2023-03-11T18:29:07.214Z,67.17
2023-03-11T18:31:40.350Z,67.70
2023-03-11T18:34:15.104Z,68.01
2023-03-11T18:36:42.860Z,68.27
2023-03-11T18:39:12.586Z,68.51
2023-03-11T18:41:39.969Z,68.72
2023-03-11T18:44:08.444Z,68.99
2023-03-11T18:46:35.626Z,69.35
2023-03-11T18:49:04.044Z,69.86
2023-03-11T18:51:34.204Z,70.03
2023-03-11T18:54:02.318Z,70.59
2023-03-11T18:56:31.166Z,70.60
2023-03-11T18:59:00.143Z,70.96
2023-03-11T19:01:28.301Z,71.26
2023-03-11T19:03:58.583Z,71.59
2023-03-11T19:06:28.072Z,71.96
2023-03-11T19:08:55.824Z,72.25
2023-03-11T19:11:24.862Z,72.48
2023-03-11T19:13:53.937Z,72.69
2023-03-11T19:16:25.228Z,73.08
2023-03-11T19:18:57.454Z,73.30
2023-03-11T19:21:25.800Z,73.34
2023-03-11T19:23:55.272Z,73.37
2023-03-11T19:26:37.457Z,73.55
2023-03-11T19:29:14.154Z,73.57
2023-03-11T19:31:43.827Z,73.64
2023-03-11T19:34:11.511Z,73.54
2023-03-11T19:36:39.453Z,73.64
2023-03-11T19:39:06.969Z,73.50
2023-03-11T19:41:34.735Z,73.45
2023-03-11T19:44:04.040Z,73.76
2023-03-11T19:46:34.530Z,73.86
2023-03-11T19:49:03.180Z,73.85
2023-03-11T19:51:38.767Z,74.04
2023-03-11T19:54:16.101Z,74.40
2023-03-11T19:56:43.751Z,74.38
2023-03-11T19:59:10.785Z,74.55
2023-03-11T20:01:38.047Z,74.78
2023-03-11T20:04:05.833Z,75.07
2023-03-11T20:06:33.027Z,75.03
2023-03-11T20:09:00.230Z,75.10
2023-03-11T20:11:27.192Z,75.08
2023-03-11T20:13:54.482Z,75.17
2023-03-11T20:16:22.573Z,75.23
2023-03-11T20:18:51.111Z,75.42
2023-03-11T20:21:18.794Z,75.54
2023-03-11T20:23:46.058Z,75.55
2023-03-11T20:26:17.729Z,75.56
2023-03-11T20:28:44.798Z,75.74
2023-03-11T20:31:19.946Z,75.88
2023-03-11T20:33:50.011Z,76.19
2023-03-11T20:36:21.557Z,76.19
2023-03-11T20:38:51.253Z,76.38
2023-03-11T20:41:18.800Z,76.69
2023-03-11T20:43:46.129Z,76.87
2023-03-11T20:46:13.346Z,76.96
2023-03-11T20:48:40.610Z,77.03
2023-03-11T20:51:12.915Z,77.30
2023-03-11T20:53:40.397Z,77.44
2023-03-11T20:56:11.792Z,77.61
2023-03-11T20:58:39.353Z,77.72
2023-03-11T21:01:15.995Z,77.58
2023-03-11T21:03:44.261Z,77.51
2023-03-11T21:06:24.045Z,77.58
2023-03-11T21:08:55.020Z,77.75
2023-03-11T21:11:24.510Z,77.53
2023-03-11T21:13:52.836Z,77.51
2023-03-11T21:16:20.910Z,77.50
2023-03-11T21:18:49.545Z,77.48
2023-03-11T21:21:18.837Z,77.52
2023-03-11T21:23:47.182Z,77.64
2023-03-11T21:26:16.639Z,77.86
2023-03-11T21:28:47.108Z,77.91
2023-03-11T21:31:18.957Z,78.03
2023-03-11T21:33:47.677Z,78.07
2023-03-11T21:36:16.596Z,78.27
2023-03-11T21:38:46.941Z,78.21
2023-03-11T21:41:21.593Z,78.44
2023-03-11T21:43:48.904Z,78.48
2023-03-11T21:46:19.212Z,78.60
2023-03-11T21:48:47.247Z,78.70
2023-03-11T21:51:17.467Z,78.70
2023-03-11T21:53:45.021Z,78.55
2023-03-11T21:56:13.561Z,78.34
2023-03-11T21:58:42.081Z,78.17
2023-03-11T22:01:10.517Z,78.21
2023-03-11T22:03:38.682Z,78.21
2023-03-11T22:06:10.663Z,78.12
2023-03-11T22:08:38.279Z,78.29
2023-03-11T22:11:17.369Z,78.20
2023-03-11T22:13:47.273Z,78.59
2023-03-11T22:16:15.047Z,78.50
2023-03-11T22:18:42.217Z,78.63
2023-03-11T22:21:10.844Z,78.82
2023-03-11T22:23:38.118Z,78.82
2023-03-11T22:26:05.069Z,79.12
2023-03-11T22:28:32.392Z,79.03
2023-03-11T22:30:59.402Z,79.18
2023-03-11T22:33:26.438Z,79.11
2023-03-11T22:35:56.926Z,79.31
2023-03-11T22:38:24.320Z,78.98
2023-03-11T22:40:52.083Z,79.04
2023-03-11T22:43:19.657Z,79.16
2023-03-11T22:45:46.903Z,79.23
2023-03-11T22:48:14.479Z,79.21
2023-03-11T22:50:47.397Z,79.32
2023-03-11T22:53:15.640Z,79.22
2023-03-11T22:55:44.663Z,79.12
2023-03-11T22:58:12.468Z,79.07
2023-03-11T23:00:40.380Z,79.10
2023-03-11T23:03:07.480Z,78.88
2023-03-11T23:05:41.558Z,78.94
2023-03-11T23:08:12.003Z,78.78
2023-03-11T23:10:45.386Z,78.35
2023-03-11T23:13:13.324Z,78.41
2023-03-11T23:15:45.884Z,78.43
2023-03-11T23:18:15.743Z,78.18
2023-03-11T23:20:44.664Z,77.76
2023-03-11T23:23:13.660Z,77.98
2023-03-11T23:25:41.606Z,77.91
2023-03-11T23:28:09.098Z,77.68
2023-03-11T23:30:36.406Z,77.49
2023-03-11T23:33:03.958Z,77.22
2023-03-11T23:35:32.375Z,77.36
2023-03-11T23:38:00.351Z,77.35
2023-03-11T23:40:27.489Z,77.26
2023-03-11T23:42:54.542Z,77.24
2023-03-11T23:45:21.589Z,77.19
2023-03-11T23:47:48.585Z,77.17
2023-03-11T23:50:16.289Z,76.51
2023-03-11T23:52:43.773Z,76.79
2023-03-11T23:55:11.778Z,76.73
2023-03-11T23:57:39.011Z,76.76
